<?xml version="1.0" encoding="UTF-8" standalone="no" ?>
<gpx xmlns="http://www.topografix.com/GPX/1/1" xmlns:xsi="http://www.w3.org/2001/XMLSchema-instance" xsi:schemaLocation="http://www.topografix.com/GPX/1/1 http://www.topografix.com/GPX/1/1/gpx.xsd" version="1.1" creator="VisuGPX - https://www.visugpx.com">
  <metadata>
    <name>LA VAUDOUÉ</name>
    <desc><![CDATA[Le Vaudoué avec Michel VALLUET le 03/04/2016]]></desc>
  </metadata>
  <trk>
    <name><![CDATA[--Vaudoué (Le)-- OR-5455448:Le Vaudoué]]></name>
    <trkseg>
      <trkpt lat="48.35528" lon="2.51925">
        <ele>72</ele>
        <time>2016-04-03T18:49:57Z</time>
      </trkpt>
      <trkpt lat="48.35529" lon="2.52047">
        <ele>75</ele>
        <time>2016-04-03T18:51:57Z</time>
      </trkpt>
      <trkpt lat="48.35548" lon="2.52087">
        <ele>77</ele>
        <time>2016-04-03T18:53:57Z</time>
      </trkpt>
      <trkpt lat="48.35415" lon="2.52072">
        <ele>73</ele>
        <time>2016-04-03T18:55:57Z</time>
      </trkpt>
      <trkpt lat="48.35404" lon="2.52207">
        <ele>78</ele>
        <time>2016-04-03T18:57:57Z</time>
      </trkpt>
      <trkpt lat="48.35354" lon="2.5248">
        <ele>92</ele>
        <time>2016-04-03T18:59:57Z</time>
      </trkpt>
      <trkpt lat="48.35327" lon="2.52612">
        <ele>101</ele>
        <time>2016-04-03T19:01:57Z</time>
      </trkpt>
      <trkpt lat="48.35322" lon="2.52653">
        <ele>104</ele>
        <time>2016-04-03T19:03:57Z</time>
      </trkpt>
      <trkpt lat="48.35305" lon="2.52728">
        <ele>110</ele>
        <time>2016-04-03T19:05:57Z</time>
      </trkpt>
      <trkpt lat="48.35306" lon="2.5287">
        <ele>118</ele>
        <time>2016-04-03T19:07:57Z</time>
      </trkpt>
      <trkpt lat="48.3529" lon="2.53003">
        <ele>119</ele>
        <time>2016-04-03T19:09:57Z</time>
      </trkpt>
      <trkpt lat="48.35203" lon="2.53473">
        <ele>125</ele>
        <time>2016-04-03T19:11:57Z</time>
      </trkpt>
      <trkpt lat="48.352" lon="2.53506">
        <ele>125</ele>
        <time>2016-04-03T19:13:57Z</time>
      </trkpt>
      <trkpt lat="48.35164" lon="2.53675">
        <ele>125</ele>
        <time>2016-04-03T19:15:57Z</time>
      </trkpt>
      <trkpt lat="48.35137" lon="2.53819">
        <ele>125</ele>
        <time>2016-04-03T19:17:57Z</time>
      </trkpt>
      <trkpt lat="48.35103" lon="2.5395">
        <ele>123</ele>
        <time>2016-04-03T19:19:57Z</time>
      </trkpt>
      <trkpt lat="48.35076" lon="2.54036">
        <ele>124</ele>
        <time>2016-04-03T19:21:57Z</time>
      </trkpt>
      <trkpt lat="48.3505" lon="2.54119">
        <ele>126</ele>
        <time>2016-04-03T19:23:57Z</time>
      </trkpt>
      <trkpt lat="48.35022" lon="2.54181">
        <ele>125</ele>
        <time>2016-04-03T19:25:57Z</time>
      </trkpt>
      <trkpt lat="48.34992" lon="2.54287">
        <ele>122</ele>
        <time>2016-04-03T19:27:57Z</time>
      </trkpt>
      <trkpt lat="48.34974" lon="2.54355">
        <ele>121</ele>
        <time>2016-04-03T19:29:57Z</time>
      </trkpt>
      <trkpt lat="48.34961" lon="2.54411">
        <ele>119</ele>
        <time>2016-04-03T19:31:57Z</time>
      </trkpt>
      <trkpt lat="48.3494" lon="2.54519">
        <ele>119</ele>
        <time>2016-04-03T19:33:57Z</time>
      </trkpt>
      <trkpt lat="48.34927" lon="2.54557">
        <ele>118</ele>
        <time>2016-04-03T19:35:57Z</time>
      </trkpt>
      <trkpt lat="48.34904" lon="2.54605">
        <ele>114</ele>
        <time>2016-04-03T19:37:57Z</time>
      </trkpt>
      <trkpt lat="48.34898" lon="2.54625">
        <ele>113</ele>
        <time>2016-04-03T19:39:57Z</time>
      </trkpt>
      <trkpt lat="48.34884" lon="2.54628">
        <ele>112</ele>
        <time>2016-04-03T19:41:57Z</time>
      </trkpt>
      <trkpt lat="48.34868" lon="2.54625">
        <ele>111</ele>
        <time>2016-04-03T19:43:57Z</time>
      </trkpt>
      <trkpt lat="48.3486" lon="2.54624">
        <ele>111</ele>
        <time>2016-04-03T19:45:57Z</time>
      </trkpt>
      <trkpt lat="48.34846" lon="2.5462">
        <ele>110</ele>
        <time>2016-04-03T19:47:57Z</time>
      </trkpt>
      <trkpt lat="48.34797" lon="2.54577">
        <ele>110</ele>
        <time>2016-04-03T19:49:57Z</time>
      </trkpt>
      <trkpt lat="48.34776" lon="2.54577">
        <ele>109</ele>
        <time>2016-04-03T19:51:57Z</time>
      </trkpt>
      <trkpt lat="48.34746" lon="2.546">
        <ele>106</ele>
        <time>2016-04-03T19:53:57Z</time>
      </trkpt>
      <trkpt lat="48.34708" lon="2.54641">
        <ele>103</ele>
        <time>2016-04-03T19:55:57Z</time>
      </trkpt>
      <trkpt lat="48.34688" lon="2.54658">
        <ele>101</ele>
        <time>2016-04-03T19:57:57Z</time>
      </trkpt>
      <trkpt lat="48.34668" lon="2.5467">
        <ele>100</ele>
        <time>2016-04-03T19:59:57Z</time>
      </trkpt>
      <trkpt lat="48.34657" lon="2.54671">
        <ele>100</ele>
        <time>2016-04-03T20:01:57Z</time>
      </trkpt>
      <trkpt lat="48.34639" lon="2.54676">
        <ele>99</ele>
        <time>2016-04-03T20:03:57Z</time>
      </trkpt>
      <trkpt lat="48.34618" lon="2.54679">
        <ele>99</ele>
        <time>2016-04-03T20:05:57Z</time>
      </trkpt>
      <trkpt lat="48.346" lon="2.54683">
        <ele>98</ele>
        <time>2016-04-03T20:07:57Z</time>
      </trkpt>
      <trkpt lat="48.34589" lon="2.5473">
        <ele>97</ele>
        <time>2016-04-03T20:09:57Z</time>
      </trkpt>
      <trkpt lat="48.34594" lon="2.54841">
        <ele>99</ele>
        <time>2016-04-03T20:11:57Z</time>
      </trkpt>
      <trkpt lat="48.3459" lon="2.54889">
        <ele>100</ele>
        <time>2016-04-03T20:13:57Z</time>
      </trkpt>
      <trkpt lat="48.34592" lon="2.54937">
        <ele>101</ele>
        <time>2016-04-03T20:15:57Z</time>
      </trkpt>
      <trkpt lat="48.34595" lon="2.54963">
        <ele>101</ele>
        <time>2016-04-03T20:17:57Z</time>
      </trkpt>
      <trkpt lat="48.34601" lon="2.54987">
        <ele>101</ele>
        <time>2016-04-03T20:19:57Z</time>
      </trkpt>
      <trkpt lat="48.34604" lon="2.55009">
        <ele>101</ele>
        <time>2016-04-03T20:21:57Z</time>
      </trkpt>
      <trkpt lat="48.34604" lon="2.5503">
        <ele>101</ele>
        <time>2016-04-03T20:23:57Z</time>
      </trkpt>
      <trkpt lat="48.34601" lon="2.55054">
        <ele>101</ele>
        <time>2016-04-03T20:25:57Z</time>
      </trkpt>
      <trkpt lat="48.34599" lon="2.55082">
        <ele>101</ele>
        <time>2016-04-03T20:27:57Z</time>
      </trkpt>
      <trkpt lat="48.346" lon="2.55106">
        <ele>101</ele>
        <time>2016-04-03T20:29:57Z</time>
      </trkpt>
      <trkpt lat="48.34603" lon="2.55124">
        <ele>100</ele>
        <time>2016-04-03T20:31:57Z</time>
      </trkpt>
      <trkpt lat="48.34605" lon="2.55139">
        <ele>100</ele>
        <time>2016-04-03T20:33:57Z</time>
      </trkpt>
      <trkpt lat="48.34608" lon="2.55159">
        <ele>100</ele>
        <time>2016-04-03T20:35:57Z</time>
      </trkpt>
      <trkpt lat="48.34607" lon="2.55194">
        <ele>100</ele>
        <time>2016-04-03T20:37:57Z</time>
      </trkpt>
      <trkpt lat="48.3461" lon="2.55207">
        <ele>100</ele>
        <time>2016-04-03T20:39:57Z</time>
      </trkpt>
      <trkpt lat="48.34611" lon="2.55223">
        <ele>99</ele>
        <time>2016-04-03T20:41:57Z</time>
      </trkpt>
      <trkpt lat="48.34611" lon="2.55239">
        <ele>99</ele>
        <time>2016-04-03T20:43:57Z</time>
      </trkpt>
      <trkpt lat="48.34607" lon="2.5528">
        <ele>102</ele>
        <time>2016-04-03T20:45:57Z</time>
      </trkpt>
      <trkpt lat="48.34607" lon="2.55316">
        <ele>104</ele>
        <time>2016-04-03T20:47:57Z</time>
      </trkpt>
      <trkpt lat="48.34622" lon="2.55361">
        <ele>106</ele>
        <time>2016-04-03T20:49:57Z</time>
      </trkpt>
      <trkpt lat="48.34623" lon="2.5538">
        <ele>107</ele>
        <time>2016-04-03T20:51:57Z</time>
      </trkpt>
      <trkpt lat="48.34622" lon="2.55396">
        <ele>108</ele>
        <time>2016-04-03T20:53:57Z</time>
      </trkpt>
      <trkpt lat="48.34618" lon="2.55422">
        <ele>110</ele>
        <time>2016-04-03T20:55:57Z</time>
      </trkpt>
      <trkpt lat="48.34614" lon="2.55473">
        <ele>111</ele>
        <time>2016-04-03T20:57:57Z</time>
      </trkpt>
      <trkpt lat="48.34608" lon="2.55496">
        <ele>112</ele>
        <time>2016-04-03T20:59:57Z</time>
      </trkpt>
      <trkpt lat="48.34552" lon="2.55505">
        <ele>115</ele>
        <time>2016-04-03T21:01:57Z</time>
      </trkpt>
      <trkpt lat="48.34558" lon="2.55602">
        <ele>115</ele>
        <time>2016-04-03T21:03:57Z</time>
      </trkpt>
      <trkpt lat="48.34554" lon="2.55755">
        <ele>113</ele>
        <time>2016-04-03T21:05:57Z</time>
      </trkpt>
      <trkpt lat="48.34543" lon="2.55926">
        <ele>108</ele>
        <time>2016-04-03T21:07:57Z</time>
      </trkpt>
      <trkpt lat="48.34538" lon="2.55981">
        <ele>107</ele>
        <time>2016-04-03T21:09:57Z</time>
      </trkpt>
      <trkpt lat="48.34531" lon="2.56077">
        <ele>107</ele>
        <time>2016-04-03T21:11:57Z</time>
      </trkpt>
      <trkpt lat="48.34583" lon="2.56113">
        <ele>106</ele>
        <time>2016-04-03T21:13:57Z</time>
      </trkpt>
      <trkpt lat="48.34585" lon="2.56123">
        <ele>106</ele>
        <time>2016-04-03T21:15:57Z</time>
      </trkpt>
      <trkpt lat="48.34558" lon="2.56241">
        <ele>104</ele>
        <time>2016-04-03T21:17:57Z</time>
      </trkpt>
      <trkpt lat="48.34538" lon="2.5637">
        <ele>105</ele>
        <time>2016-04-03T21:19:57Z</time>
      </trkpt>
      <trkpt lat="48.34515" lon="2.56477">
        <ele>105</ele>
        <time>2016-04-03T21:21:57Z</time>
      </trkpt>
      <trkpt lat="48.34543" lon="2.56472">
        <ele>106</ele>
        <time>2016-04-03T21:23:57Z</time>
      </trkpt>
      <trkpt lat="48.34586" lon="2.56474">
        <ele>108</ele>
        <time>2016-04-03T21:25:57Z</time>
      </trkpt>
      <trkpt lat="48.34609" lon="2.56454">
        <ele>109</ele>
        <time>2016-04-03T21:27:57Z</time>
      </trkpt>
      <trkpt lat="48.34631" lon="2.5646">
        <ele>110</ele>
        <time>2016-04-03T21:29:57Z</time>
      </trkpt>
      <trkpt lat="48.34617" lon="2.56638">
        <ele>109</ele>
        <time>2016-04-03T21:31:57Z</time>
      </trkpt>
      <trkpt lat="48.34607" lon="2.5671">
        <ele>109</ele>
        <time>2016-04-03T21:33:57Z</time>
      </trkpt>
      <trkpt lat="48.34605" lon="2.56787">
        <ele>111</ele>
        <time>2016-04-03T21:35:57Z</time>
      </trkpt>
      <trkpt lat="48.34609" lon="2.56875">
        <ele>112</ele>
        <time>2016-04-03T21:37:57Z</time>
      </trkpt>
      <trkpt lat="48.34629" lon="2.56969">
        <ele>113</ele>
        <time>2016-04-03T21:39:57Z</time>
      </trkpt>
      <trkpt lat="48.34665" lon="2.56956">
        <ele>111</ele>
        <time>2016-04-03T21:41:57Z</time>
      </trkpt>
      <trkpt lat="48.34697" lon="2.56911">
        <ele>110</ele>
        <time>2016-04-03T21:43:57Z</time>
      </trkpt>
      <trkpt lat="48.34722" lon="2.56866">
        <ele>111</ele>
        <time>2016-04-03T21:45:57Z</time>
      </trkpt>
      <trkpt lat="48.34736" lon="2.56803">
        <ele>111</ele>
        <time>2016-04-03T21:47:57Z</time>
      </trkpt>
      <trkpt lat="48.34748" lon="2.56679">
        <ele>111</ele>
        <time>2016-04-03T21:49:57Z</time>
      </trkpt>
      <trkpt lat="48.34764" lon="2.56601">
        <ele>112</ele>
        <time>2016-04-03T21:51:57Z</time>
      </trkpt>
      <trkpt lat="48.34771" lon="2.5661">
        <ele>112</ele>
        <time>2016-04-03T21:53:57Z</time>
      </trkpt>
      <trkpt lat="48.34839" lon="2.56677">
        <ele>113</ele>
        <time>2016-04-03T21:55:57Z</time>
      </trkpt>
      <trkpt lat="48.34904" lon="2.56787">
        <ele>116</ele>
        <time>2016-04-03T21:57:57Z</time>
      </trkpt>
      <trkpt lat="48.35031" lon="2.57005">
        <ele>117</ele>
        <time>2016-04-03T21:59:57Z</time>
      </trkpt>
      <trkpt lat="48.3506" lon="2.57053">
        <ele>118</ele>
        <time>2016-04-03T22:01:57Z</time>
      </trkpt>
      <trkpt lat="48.35141" lon="2.57141">
        <ele>118</ele>
        <time>2016-04-03T22:03:57Z</time>
      </trkpt>
      <trkpt lat="48.35256" lon="2.57254">
        <ele>121</ele>
        <time>2016-04-03T22:05:57Z</time>
      </trkpt>
      <trkpt lat="48.3527" lon="2.57269">
        <ele>121</ele>
        <time>2016-04-03T22:07:57Z</time>
      </trkpt>
      <trkpt lat="48.35293" lon="2.57284">
        <ele>120</ele>
        <time>2016-04-03T22:09:57Z</time>
      </trkpt>
      <trkpt lat="48.35319" lon="2.57227">
        <ele>120</ele>
        <time>2016-04-03T22:11:57Z</time>
      </trkpt>
      <trkpt lat="48.35329" lon="2.57209">
        <ele>120</ele>
        <time>2016-04-03T22:13:57Z</time>
      </trkpt>
      <trkpt lat="48.35341" lon="2.57177">
        <ele>120</ele>
        <time>2016-04-03T22:15:57Z</time>
      </trkpt>
      <trkpt lat="48.35359" lon="2.57102">
        <ele>121</ele>
        <time>2016-04-03T22:17:57Z</time>
      </trkpt>
      <trkpt lat="48.3539" lon="2.57005">
        <ele>119</ele>
        <time>2016-04-03T22:19:57Z</time>
      </trkpt>
      <trkpt lat="48.35435" lon="2.57033">
        <ele>119</ele>
        <time>2016-04-03T22:21:57Z</time>
      </trkpt>
      <trkpt lat="48.35461" lon="2.5704">
        <ele>119</ele>
        <time>2016-04-03T22:23:57Z</time>
      </trkpt>
      <trkpt lat="48.35499" lon="2.57036">
        <ele>119</ele>
        <time>2016-04-03T22:25:57Z</time>
      </trkpt>
      <trkpt lat="48.35583" lon="2.57007">
        <ele>121</ele>
        <time>2016-04-03T22:27:57Z</time>
      </trkpt>
      <trkpt lat="48.35602" lon="2.57019">
        <ele>121</ele>
        <time>2016-04-03T22:29:57Z</time>
      </trkpt>
      <trkpt lat="48.3566" lon="2.56953">
        <ele>120</ele>
        <time>2016-04-03T22:31:57Z</time>
      </trkpt>
      <trkpt lat="48.35695" lon="2.56902">
        <ele>120</ele>
        <time>2016-04-03T22:33:57Z</time>
      </trkpt>
      <trkpt lat="48.35726" lon="2.56823">
        <ele>119</ele>
        <time>2016-04-03T22:35:57Z</time>
      </trkpt>
      <trkpt lat="48.35689" lon="2.56598">
        <ele>120</ele>
        <time>2016-04-03T22:37:57Z</time>
      </trkpt>
      <trkpt lat="48.35715" lon="2.56546">
        <ele>121</ele>
        <time>2016-04-03T22:39:57Z</time>
      </trkpt>
      <trkpt lat="48.35821" lon="2.56419">
        <ele>117</ele>
        <time>2016-04-03T22:41:57Z</time>
      </trkpt>
      <trkpt lat="48.35832" lon="2.56415">
        <ele>117</ele>
        <time>2016-04-03T22:43:57Z</time>
      </trkpt>
      <trkpt lat="48.35834" lon="2.56395">
        <ele>117</ele>
        <time>2016-04-03T22:45:57Z</time>
      </trkpt>
      <trkpt lat="48.35845" lon="2.5636">
        <ele>116</ele>
        <time>2016-04-03T22:47:57Z</time>
      </trkpt>
      <trkpt lat="48.35862" lon="2.56325">
        <ele>116</ele>
        <time>2016-04-03T22:49:57Z</time>
      </trkpt>
      <trkpt lat="48.35872" lon="2.56306">
        <ele>116</ele>
        <time>2016-04-03T22:51:57Z</time>
      </trkpt>
      <trkpt lat="48.35884" lon="2.56304">
        <ele>116</ele>
        <time>2016-04-03T22:53:57Z</time>
      </trkpt>
      <trkpt lat="48.35924" lon="2.5642">
        <ele>116</ele>
        <time>2016-04-03T22:55:57Z</time>
      </trkpt>
      <trkpt lat="48.35986" lon="2.56491">
        <ele>118</ele>
        <time>2016-04-03T22:57:57Z</time>
      </trkpt>
      <trkpt lat="48.36151" lon="2.56516">
        <ele>115</ele>
        <time>2016-04-03T22:59:57Z</time>
      </trkpt>
      <trkpt lat="48.36173" lon="2.56453">
        <ele>113</ele>
        <time>2016-04-03T23:01:57Z</time>
      </trkpt>
      <trkpt lat="48.36252" lon="2.56501">
        <ele>112</ele>
        <time>2016-04-03T23:03:57Z</time>
      </trkpt>
      <trkpt lat="48.36292" lon="2.56522">
        <ele>114</ele>
        <time>2016-04-03T23:05:57Z</time>
      </trkpt>
      <trkpt lat="48.36353" lon="2.56526">
        <ele>115</ele>
        <time>2016-04-03T23:07:57Z</time>
      </trkpt>
      <trkpt lat="48.3636" lon="2.56513">
        <ele>115</ele>
        <time>2016-04-03T23:09:57Z</time>
      </trkpt>
      <trkpt lat="48.36371" lon="2.5648">
        <ele>115</ele>
        <time>2016-04-03T23:11:57Z</time>
      </trkpt>
      <trkpt lat="48.36389" lon="2.56444">
        <ele>116</ele>
        <time>2016-04-03T23:13:57Z</time>
      </trkpt>
      <trkpt lat="48.36421" lon="2.56384">
        <ele>118</ele>
        <time>2016-04-03T23:15:57Z</time>
      </trkpt>
      <trkpt lat="48.36433" lon="2.56352">
        <ele>119</ele>
        <time>2016-04-03T23:17:57Z</time>
      </trkpt>
      <trkpt lat="48.36433" lon="2.56337">
        <ele>119</ele>
        <time>2016-04-03T23:19:57Z</time>
      </trkpt>
      <trkpt lat="48.36432" lon="2.56238">
        <ele>119</ele>
        <time>2016-04-03T23:21:57Z</time>
      </trkpt>
      <trkpt lat="48.36428" lon="2.55982">
        <ele>117</ele>
        <time>2016-04-03T23:23:57Z</time>
      </trkpt>
      <trkpt lat="48.36502" lon="2.55859">
        <ele>116</ele>
        <time>2016-04-03T23:25:57Z</time>
      </trkpt>
      <trkpt lat="48.36561" lon="2.55762">
        <ele>117</ele>
        <time>2016-04-03T23:27:57Z</time>
      </trkpt>
      <trkpt lat="48.36639" lon="2.55646">
        <ele>119</ele>
        <time>2016-04-03T23:29:57Z</time>
      </trkpt>
      <trkpt lat="48.36647" lon="2.55639">
        <ele>119</ele>
        <time>2016-04-03T23:31:57Z</time>
      </trkpt>
      <trkpt lat="48.36664" lon="2.55638">
        <ele>119</ele>
        <time>2016-04-03T23:33:57Z</time>
      </trkpt>
      <trkpt lat="48.36678" lon="2.55631">
        <ele>119</ele>
        <time>2016-04-03T23:35:57Z</time>
      </trkpt>
      <trkpt lat="48.36686" lon="2.55616">
        <ele>119</ele>
        <time>2016-04-03T23:37:57Z</time>
      </trkpt>
      <trkpt lat="48.36691" lon="2.55598">
        <ele>119</ele>
        <time>2016-04-03T23:39:57Z</time>
      </trkpt>
      <trkpt lat="48.36703" lon="2.55582">
        <ele>119</ele>
        <time>2016-04-03T23:41:57Z</time>
      </trkpt>
      <trkpt lat="48.36874" lon="2.55841">
        <ele>124</ele>
        <time>2016-04-03T23:43:57Z</time>
      </trkpt>
      <trkpt lat="48.3686" lon="2.55873">
        <ele>124</ele>
        <time>2016-04-03T23:45:57Z</time>
      </trkpt>
      <trkpt lat="48.36857" lon="2.55891">
        <ele>124</ele>
        <time>2016-04-03T23:47:57Z</time>
      </trkpt>
      <trkpt lat="48.36859" lon="2.55928">
        <ele>125</ele>
        <time>2016-04-03T23:49:57Z</time>
      </trkpt>
      <trkpt lat="48.36861" lon="2.55977">
        <ele>125</ele>
        <time>2016-04-03T23:51:57Z</time>
      </trkpt>
      <trkpt lat="48.3686" lon="2.56005">
        <ele>125</ele>
        <time>2016-04-03T23:53:57Z</time>
      </trkpt>
      <trkpt lat="48.36863" lon="2.56019">
        <ele>126</ele>
        <time>2016-04-03T23:55:57Z</time>
      </trkpt>
      <trkpt lat="48.36888" lon="2.56053">
        <ele>126</ele>
        <time>2016-04-03T23:57:57Z</time>
      </trkpt>
      <trkpt lat="48.369" lon="2.56054">
        <ele>126</ele>
        <time>2016-04-03T23:59:57Z</time>
      </trkpt>
      <trkpt lat="48.36906" lon="2.56064">
        <ele>126</ele>
        <time>2016-04-04T00:01:57Z</time>
      </trkpt>
      <trkpt lat="48.3692" lon="2.5608">
        <ele>126</ele>
        <time>2016-04-04T00:03:57Z</time>
      </trkpt>
      <trkpt lat="48.36943" lon="2.56095">
        <ele>125</ele>
        <time>2016-04-04T00:05:57Z</time>
      </trkpt>
      <trkpt lat="48.36979" lon="2.561">
        <ele>123</ele>
        <time>2016-04-04T00:07:57Z</time>
      </trkpt>
      <trkpt lat="48.36982" lon="2.56064">
        <ele>123</ele>
        <time>2016-04-04T00:09:57Z</time>
      </trkpt>
      <trkpt lat="48.36993" lon="2.55997">
        <ele>123</ele>
        <time>2016-04-04T00:11:57Z</time>
      </trkpt>
      <trkpt lat="48.37007" lon="2.55952">
        <ele>123</ele>
        <time>2016-04-04T00:13:57Z</time>
      </trkpt>
      <trkpt lat="48.37038" lon="2.55891">
        <ele>123</ele>
        <time>2016-04-04T00:15:57Z</time>
      </trkpt>
      <trkpt lat="48.37066" lon="2.55839">
        <ele>122</ele>
        <time>2016-04-04T00:17:57Z</time>
      </trkpt>
      <trkpt lat="48.3711" lon="2.55789">
        <ele>121</ele>
        <time>2016-04-04T00:19:57Z</time>
      </trkpt>
      <trkpt lat="48.37128" lon="2.55776">
        <ele>119</ele>
        <time>2016-04-04T00:21:57Z</time>
      </trkpt>
      <trkpt lat="48.37179" lon="2.55699">
        <ele>112</ele>
        <time>2016-04-04T00:23:57Z</time>
      </trkpt>
      <trkpt lat="48.3721" lon="2.55666">
        <ele>110</ele>
        <time>2016-04-04T00:25:57Z</time>
      </trkpt>
      <trkpt lat="48.37232" lon="2.55622">
        <ele>109</ele>
        <time>2016-04-04T00:27:57Z</time>
      </trkpt>
      <trkpt lat="48.37241" lon="2.55582">
        <ele>108</ele>
        <time>2016-04-04T00:29:57Z</time>
      </trkpt>
      <trkpt lat="48.37242" lon="2.55556">
        <ele>107</ele>
        <time>2016-04-04T00:31:57Z</time>
      </trkpt>
      <trkpt lat="48.37252" lon="2.55508">
        <ele>105</ele>
        <time>2016-04-04T00:33:57Z</time>
      </trkpt>
      <trkpt lat="48.37254" lon="2.55488">
        <ele>105</ele>
        <time>2016-04-04T00:35:57Z</time>
      </trkpt>
      <trkpt lat="48.37257" lon="2.55474">
        <ele>105</ele>
        <time>2016-04-04T00:37:57Z</time>
      </trkpt>
      <trkpt lat="48.37262" lon="2.55461">
        <ele>106</ele>
        <time>2016-04-04T00:39:57Z</time>
      </trkpt>
      <trkpt lat="48.37273" lon="2.55438">
        <ele>105</ele>
        <time>2016-04-04T00:41:57Z</time>
      </trkpt>
      <trkpt lat="48.37308" lon="2.55382">
        <ele>103</ele>
        <time>2016-04-04T00:43:57Z</time>
      </trkpt>
      <trkpt lat="48.37281" lon="2.55426">
        <ele>105</ele>
        <time>2016-04-04T00:45:57Z</time>
      </trkpt>
      <trkpt lat="48.37311" lon="2.5535">
        <ele>103</ele>
        <time>2016-04-04T00:47:57Z</time>
      </trkpt>
      <trkpt lat="48.3732" lon="2.55321">
        <ele>102</ele>
        <time>2016-04-04T00:49:57Z</time>
      </trkpt>
      <trkpt lat="48.37355" lon="2.55261">
        <ele>101</ele>
        <time>2016-04-04T00:51:57Z</time>
      </trkpt>
      <trkpt lat="48.37377" lon="2.55184">
        <ele>100</ele>
        <time>2016-04-04T00:53:57Z</time>
      </trkpt>
      <trkpt lat="48.37382" lon="2.55157">
        <ele>99</ele>
        <time>2016-04-04T00:55:57Z</time>
      </trkpt>
      <trkpt lat="48.37395" lon="2.55126">
        <ele>97</ele>
        <time>2016-04-04T00:57:57Z</time>
      </trkpt>
      <trkpt lat="48.37407" lon="2.55099">
        <ele>95</ele>
        <time>2016-04-04T00:59:57Z</time>
      </trkpt>
      <trkpt lat="48.37438" lon="2.55053">
        <ele>93</ele>
        <time>2016-04-04T01:01:57Z</time>
      </trkpt>
      <trkpt lat="48.37465" lon="2.55032">
        <ele>92</ele>
        <time>2016-04-04T01:03:57Z</time>
      </trkpt>
      <trkpt lat="48.37487" lon="2.55018">
        <ele>90</ele>
        <time>2016-04-04T01:05:57Z</time>
      </trkpt>
      <trkpt lat="48.37494" lon="2.54935">
        <ele>88</ele>
        <time>2016-04-04T01:07:57Z</time>
      </trkpt>
      <trkpt lat="48.375" lon="2.54859">
        <ele>86</ele>
        <time>2016-04-04T01:09:57Z</time>
      </trkpt>
      <trkpt lat="48.3749" lon="2.5477">
        <ele>87</ele>
        <time>2016-04-04T01:11:57Z</time>
      </trkpt>
      <trkpt lat="48.37487" lon="2.54687">
        <ele>88</ele>
        <time>2016-04-04T01:13:57Z</time>
      </trkpt>
      <trkpt lat="48.37479" lon="2.54596">
        <ele>88</ele>
        <time>2016-04-04T01:15:57Z</time>
      </trkpt>
      <trkpt lat="48.37473" lon="2.54502">
        <ele>88</ele>
        <time>2016-04-04T01:17:57Z</time>
      </trkpt>
      <trkpt lat="48.37469" lon="2.5443">
        <ele>88</ele>
        <time>2016-04-04T01:19:57Z</time>
      </trkpt>
      <trkpt lat="48.37456" lon="2.54353">
        <ele>89</ele>
        <time>2016-04-04T01:21:57Z</time>
      </trkpt>
      <trkpt lat="48.37461" lon="2.54302">
        <ele>90</ele>
        <time>2016-04-04T01:23:57Z</time>
      </trkpt>
      <trkpt lat="48.37469" lon="2.5422">
        <ele>89</ele>
        <time>2016-04-04T01:25:57Z</time>
      </trkpt>
      <trkpt lat="48.37463" lon="2.54165">
        <ele>87</ele>
        <time>2016-04-04T01:27:57Z</time>
      </trkpt>
      <trkpt lat="48.37438" lon="2.54107">
        <ele>84</ele>
        <time>2016-04-04T01:29:57Z</time>
      </trkpt>
      <trkpt lat="48.37422" lon="2.5406">
        <ele>82</ele>
        <time>2016-04-04T01:31:57Z</time>
      </trkpt>
      <trkpt lat="48.37417" lon="2.54047">
        <ele>82</ele>
        <time>2016-04-04T01:33:57Z</time>
      </trkpt>
      <trkpt lat="48.37408" lon="2.54022">
        <ele>82</ele>
        <time>2016-04-04T01:35:57Z</time>
      </trkpt>
      <trkpt lat="48.37404" lon="2.53997">
        <ele>81</ele>
        <time>2016-04-04T01:37:57Z</time>
      </trkpt>
      <trkpt lat="48.37398" lon="2.53962">
        <ele>80</ele>
        <time>2016-04-04T01:39:57Z</time>
      </trkpt>
      <trkpt lat="48.37388" lon="2.5394">
        <ele>80</ele>
        <time>2016-04-04T01:41:57Z</time>
      </trkpt>
      <trkpt lat="48.37367" lon="2.53913">
        <ele>79</ele>
        <time>2016-04-04T01:43:57Z</time>
      </trkpt>
      <trkpt lat="48.37334" lon="2.53873">
        <ele>79</ele>
        <time>2016-04-04T01:45:57Z</time>
      </trkpt>
      <trkpt lat="48.37218" lon="2.5367">
        <ele>77</ele>
        <time>2016-04-04T01:47:57Z</time>
      </trkpt>
      <trkpt lat="48.37152" lon="2.53568">
        <ele>76</ele>
        <time>2016-04-04T01:49:57Z</time>
      </trkpt>
      <trkpt lat="48.37127" lon="2.5354">
        <ele>76</ele>
        <time>2016-04-04T01:51:57Z</time>
      </trkpt>
      <trkpt lat="48.37128" lon="2.53445">
        <ele>76</ele>
        <time>2016-04-04T01:53:57Z</time>
      </trkpt>
      <trkpt lat="48.37136" lon="2.53398">
        <ele>76</ele>
        <time>2016-04-04T01:55:57Z</time>
      </trkpt>
      <trkpt lat="48.37135" lon="2.53379">
        <ele>76</ele>
        <time>2016-04-04T01:57:57Z</time>
      </trkpt>
      <trkpt lat="48.3713" lon="2.53359">
        <ele>76</ele>
        <time>2016-04-04T01:59:57Z</time>
      </trkpt>
      <trkpt lat="48.37123" lon="2.53339">
        <ele>76</ele>
        <time>2016-04-04T02:01:57Z</time>
      </trkpt>
      <trkpt lat="48.37113" lon="2.53319">
        <ele>76</ele>
        <time>2016-04-04T02:03:57Z</time>
      </trkpt>
      <trkpt lat="48.37102" lon="2.53291">
        <ele>76</ele>
        <time>2016-04-04T02:05:57Z</time>
      </trkpt>
      <trkpt lat="48.37089" lon="2.53246">
        <ele>77</ele>
        <time>2016-04-04T02:07:57Z</time>
      </trkpt>
      <trkpt lat="48.37082" lon="2.53232">
        <ele>77</ele>
        <time>2016-04-04T02:09:57Z</time>
      </trkpt>
      <trkpt lat="48.37065" lon="2.53208">
        <ele>77</ele>
        <time>2016-04-04T02:11:57Z</time>
      </trkpt>
      <trkpt lat="48.37045" lon="2.53185">
        <ele>77</ele>
        <time>2016-04-04T02:13:57Z</time>
      </trkpt>
      <trkpt lat="48.37031" lon="2.53176">
        <ele>77</ele>
        <time>2016-04-04T02:15:57Z</time>
      </trkpt>
      <trkpt lat="48.37017" lon="2.53172">
        <ele>76</ele>
        <time>2016-04-04T02:17:57Z</time>
      </trkpt>
      <trkpt lat="48.37004" lon="2.53171">
        <ele>76</ele>
        <time>2016-04-04T02:19:57Z</time>
      </trkpt>
      <trkpt lat="48.36984" lon="2.53164">
        <ele>76</ele>
        <time>2016-04-04T02:21:57Z</time>
      </trkpt>
      <trkpt lat="48.36973" lon="2.53119">
        <ele>77</ele>
        <time>2016-04-04T02:23:57Z</time>
      </trkpt>
      <trkpt lat="48.36961" lon="2.53111">
        <ele>78</ele>
        <time>2016-04-04T02:25:57Z</time>
      </trkpt>
      <trkpt lat="48.36957" lon="2.53084">
        <ele>78</ele>
        <time>2016-04-04T02:27:57Z</time>
      </trkpt>
      <trkpt lat="48.3696" lon="2.53064">
        <ele>79</ele>
        <time>2016-04-04T02:29:57Z</time>
      </trkpt>
      <trkpt lat="48.36972" lon="2.53043">
        <ele>79</ele>
        <time>2016-04-04T02:31:57Z</time>
      </trkpt>
      <trkpt lat="48.36963" lon="2.53006">
        <ele>80</ele>
        <time>2016-04-04T02:33:57Z</time>
      </trkpt>
      <trkpt lat="48.36943" lon="2.52966">
        <ele>79</ele>
        <time>2016-04-04T02:35:57Z</time>
      </trkpt>
      <trkpt lat="48.36935" lon="2.52949">
        <ele>78</ele>
        <time>2016-04-04T02:37:57Z</time>
      </trkpt>
      <trkpt lat="48.36925" lon="2.52933">
        <ele>78</ele>
        <time>2016-04-04T02:39:57Z</time>
      </trkpt>
      <trkpt lat="48.36904" lon="2.52909">
        <ele>77</ele>
        <time>2016-04-04T02:41:57Z</time>
      </trkpt>
      <trkpt lat="48.36886" lon="2.52838">
        <ele>78</ele>
        <time>2016-04-04T02:43:57Z</time>
      </trkpt>
      <trkpt lat="48.36873" lon="2.52793">
        <ele>78</ele>
        <time>2016-04-04T02:45:57Z</time>
      </trkpt>
      <trkpt lat="48.3686" lon="2.52727">
        <ele>78</ele>
        <time>2016-04-04T02:47:57Z</time>
      </trkpt>
      <trkpt lat="48.36818" lon="2.52596">
        <ele>78</ele>
        <time>2016-04-04T02:49:57Z</time>
      </trkpt>
      <trkpt lat="48.36805" lon="2.52566">
        <ele>78</ele>
        <time>2016-04-04T02:51:57Z</time>
      </trkpt>
      <trkpt lat="48.36777" lon="2.52602">
        <ele>77</ele>
        <time>2016-04-04T02:53:57Z</time>
      </trkpt>
      <trkpt lat="48.36751" lon="2.52639">
        <ele>77</ele>
        <time>2016-04-04T02:55:57Z</time>
      </trkpt>
      <trkpt lat="48.36731" lon="2.52655">
        <ele>77</ele>
        <time>2016-04-04T02:57:57Z</time>
      </trkpt>
      <trkpt lat="48.36713" lon="2.52657">
        <ele>77</ele>
        <time>2016-04-04T02:59:57Z</time>
      </trkpt>
      <trkpt lat="48.36647" lon="2.52643">
        <ele>77</ele>
        <time>2016-04-04T03:01:57Z</time>
      </trkpt>
      <trkpt lat="48.36606" lon="2.52654">
        <ele>76</ele>
        <time>2016-04-04T03:03:57Z</time>
      </trkpt>
      <trkpt lat="48.36579" lon="2.52678">
        <ele>76</ele>
        <time>2016-04-04T03:05:57Z</time>
      </trkpt>
      <trkpt lat="48.3658" lon="2.52705">
        <ele>77</ele>
        <time>2016-04-04T03:07:57Z</time>
      </trkpt>
      <trkpt lat="48.36578" lon="2.52743">
        <ele>78</ele>
        <time>2016-04-04T03:09:57Z</time>
      </trkpt>
      <trkpt lat="48.36573" lon="2.52788">
        <ele>77</ele>
        <time>2016-04-04T03:11:57Z</time>
      </trkpt>
      <trkpt lat="48.36567" lon="2.52811">
        <ele>77</ele>
        <time>2016-04-04T03:13:57Z</time>
      </trkpt>
      <trkpt lat="48.36561" lon="2.52833">
        <ele>77</ele>
        <time>2016-04-04T03:15:57Z</time>
      </trkpt>
      <trkpt lat="48.36549" lon="2.5285">
        <ele>76</ele>
        <time>2016-04-04T03:17:57Z</time>
      </trkpt>
      <trkpt lat="48.36543" lon="2.52864">
        <ele>76</ele>
        <time>2016-04-04T03:19:57Z</time>
      </trkpt>
      <trkpt lat="48.36522" lon="2.52917">
        <ele>75</ele>
        <time>2016-04-04T03:21:57Z</time>
      </trkpt>
      <trkpt lat="48.36497" lon="2.53001">
        <ele>77</ele>
        <time>2016-04-04T03:23:57Z</time>
      </trkpt>
      <trkpt lat="48.36491" lon="2.53011">
        <ele>78</ele>
        <time>2016-04-04T03:25:57Z</time>
      </trkpt>
      <trkpt lat="48.36474" lon="2.53016">
        <ele>78</ele>
        <time>2016-04-04T03:27:57Z</time>
      </trkpt>
      <trkpt lat="48.36466" lon="2.53033">
        <ele>78</ele>
        <time>2016-04-04T03:29:57Z</time>
      </trkpt>
      <trkpt lat="48.36455" lon="2.53058">
        <ele>80</ele>
        <time>2016-04-04T03:31:57Z</time>
      </trkpt>
      <trkpt lat="48.36441" lon="2.53075">
        <ele>80</ele>
        <time>2016-04-04T03:33:57Z</time>
      </trkpt>
      <trkpt lat="48.36436" lon="2.53092">
        <ele>80</ele>
        <time>2016-04-04T03:35:57Z</time>
      </trkpt>
      <trkpt lat="48.36433" lon="2.53112">
        <ele>80</ele>
        <time>2016-04-04T03:37:57Z</time>
      </trkpt>
      <trkpt lat="48.36419" lon="2.53125">
        <ele>80</ele>
        <time>2016-04-04T03:39:57Z</time>
      </trkpt>
      <trkpt lat="48.36412" lon="2.53138">
        <ele>80</ele>
        <time>2016-04-04T03:41:57Z</time>
      </trkpt>
      <trkpt lat="48.36402" lon="2.53138">
        <ele>79</ele>
        <time>2016-04-04T03:43:57Z</time>
      </trkpt>
      <trkpt lat="48.36389" lon="2.53135">
        <ele>79</ele>
        <time>2016-04-04T03:45:57Z</time>
      </trkpt>
      <trkpt lat="48.36376" lon="2.53133">
        <ele>79</ele>
        <time>2016-04-04T03:47:57Z</time>
      </trkpt>
      <trkpt lat="48.36363" lon="2.53142">
        <ele>79</ele>
        <time>2016-04-04T03:49:57Z</time>
      </trkpt>
      <trkpt lat="48.3635" lon="2.53141">
        <ele>78</ele>
        <time>2016-04-04T03:51:57Z</time>
      </trkpt>
      <trkpt lat="48.36335" lon="2.53142">
        <ele>78</ele>
        <time>2016-04-04T03:53:57Z</time>
      </trkpt>
      <trkpt lat="48.36325" lon="2.53151">
        <ele>79</ele>
        <time>2016-04-04T03:55:57Z</time>
      </trkpt>
      <trkpt lat="48.36323" lon="2.53169">
        <ele>80</ele>
        <time>2016-04-04T03:57:57Z</time>
      </trkpt>
      <trkpt lat="48.36324" lon="2.53182">
        <ele>81</ele>
        <time>2016-04-04T03:59:57Z</time>
      </trkpt>
      <trkpt lat="48.36316" lon="2.53201">
        <ele>83</ele>
        <time>2016-04-04T04:01:57Z</time>
      </trkpt>
      <trkpt lat="48.36312" lon="2.53219">
        <ele>85</ele>
        <time>2016-04-04T04:03:57Z</time>
      </trkpt>
      <trkpt lat="48.36302" lon="2.53228">
        <ele>86</ele>
        <time>2016-04-04T04:05:57Z</time>
      </trkpt>
      <trkpt lat="48.36293" lon="2.53242">
        <ele>87</ele>
        <time>2016-04-04T04:07:57Z</time>
      </trkpt>
      <trkpt lat="48.36287" lon="2.53264">
        <ele>89</ele>
        <time>2016-04-04T04:09:57Z</time>
      </trkpt>
      <trkpt lat="48.36277" lon="2.53273">
        <ele>90</ele>
        <time>2016-04-04T04:11:57Z</time>
      </trkpt>
      <trkpt lat="48.36267" lon="2.53274">
        <ele>90</ele>
        <time>2016-04-04T04:13:57Z</time>
      </trkpt>
      <trkpt lat="48.3626" lon="2.53283">
        <ele>91</ele>
        <time>2016-04-04T04:15:57Z</time>
      </trkpt>
      <trkpt lat="48.36257" lon="2.53297">
        <ele>92</ele>
        <time>2016-04-04T04:17:57Z</time>
      </trkpt>
      <trkpt lat="48.36256" lon="2.53316">
        <ele>93</ele>
        <time>2016-04-04T04:19:57Z</time>
      </trkpt>
      <trkpt lat="48.36245" lon="2.53325">
        <ele>94</ele>
        <time>2016-04-04T04:21:57Z</time>
      </trkpt>
      <trkpt lat="48.36234" lon="2.53331">
        <ele>95</ele>
        <time>2016-04-04T04:23:57Z</time>
      </trkpt>
      <trkpt lat="48.36222" lon="2.53344">
        <ele>97</ele>
        <time>2016-04-04T04:25:57Z</time>
      </trkpt>
      <trkpt lat="48.36211" lon="2.53358">
        <ele>99</ele>
        <time>2016-04-04T04:27:57Z</time>
      </trkpt>
      <trkpt lat="48.36204" lon="2.53376">
        <ele>101</ele>
        <time>2016-04-04T04:29:57Z</time>
      </trkpt>
      <trkpt lat="48.36184" lon="2.53375">
        <ele>101</ele>
        <time>2016-04-04T04:31:57Z</time>
      </trkpt>
      <trkpt lat="48.36165" lon="2.53374">
        <ele>101</ele>
        <time>2016-04-04T04:33:57Z</time>
      </trkpt>
      <trkpt lat="48.36146" lon="2.53404">
        <ele>101</ele>
        <time>2016-04-04T04:35:57Z</time>
      </trkpt>
      <trkpt lat="48.36142" lon="2.53441">
        <ele>102</ele>
        <time>2016-04-04T04:37:57Z</time>
      </trkpt>
      <trkpt lat="48.36137" lon="2.5348">
        <ele>102</ele>
        <time>2016-04-04T04:39:57Z</time>
      </trkpt>
      <trkpt lat="48.36124" lon="2.53485">
        <ele>100</ele>
        <time>2016-04-04T04:41:57Z</time>
      </trkpt>
      <trkpt lat="48.36116" lon="2.53487">
        <ele>98</ele>
        <time>2016-04-04T04:43:57Z</time>
      </trkpt>
      <trkpt lat="48.36108" lon="2.53506">
        <ele>96</ele>
        <time>2016-04-04T04:45:57Z</time>
      </trkpt>
      <trkpt lat="48.36106" lon="2.53523">
        <ele>95</ele>
        <time>2016-04-04T04:47:57Z</time>
      </trkpt>
      <trkpt lat="48.361" lon="2.53555">
        <ele>92</ele>
        <time>2016-04-04T04:49:57Z</time>
      </trkpt>
      <trkpt lat="48.36093" lon="2.53578">
        <ele>89</ele>
        <time>2016-04-04T04:51:57Z</time>
      </trkpt>
      <trkpt lat="48.3609" lon="2.53603">
        <ele>88</ele>
        <time>2016-04-04T04:53:57Z</time>
      </trkpt>
      <trkpt lat="48.36147" lon="2.5364">
        <ele>97</ele>
        <time>2016-04-04T04:55:57Z</time>
      </trkpt>
      <trkpt lat="48.36153" lon="2.53658">
        <ele>97</ele>
        <time>2016-04-04T04:57:57Z</time>
      </trkpt>
      <trkpt lat="48.36152" lon="2.53678">
        <ele>97</ele>
        <time>2016-04-04T04:59:57Z</time>
      </trkpt>
      <trkpt lat="48.36156" lon="2.53695">
        <ele>99</ele>
        <time>2016-04-04T05:01:57Z</time>
      </trkpt>
      <trkpt lat="48.36153" lon="2.53715">
        <ele>100</ele>
        <time>2016-04-04T05:03:57Z</time>
      </trkpt>
      <trkpt lat="48.36129" lon="2.53741">
        <ele>98</ele>
        <time>2016-04-04T05:05:57Z</time>
      </trkpt>
      <trkpt lat="48.36119" lon="2.53746">
        <ele>97</ele>
        <time>2016-04-04T05:07:57Z</time>
      </trkpt>
      <trkpt lat="48.36113" lon="2.53762">
        <ele>98</ele>
        <time>2016-04-04T05:09:57Z</time>
      </trkpt>
      <trkpt lat="48.36117" lon="2.53771">
        <ele>99</ele>
        <time>2016-04-04T05:11:57Z</time>
      </trkpt>
      <trkpt lat="48.36121" lon="2.53784">
        <ele>100</ele>
        <time>2016-04-04T05:13:57Z</time>
      </trkpt>
      <trkpt lat="48.36113" lon="2.538">
        <ele>100</ele>
        <time>2016-04-04T05:15:57Z</time>
      </trkpt>
      <trkpt lat="48.36112" lon="2.5381">
        <ele>101</ele>
        <time>2016-04-04T05:17:57Z</time>
      </trkpt>
      <trkpt lat="48.36114" lon="2.5382">
        <ele>102</ele>
        <time>2016-04-04T05:19:57Z</time>
      </trkpt>
      <trkpt lat="48.3611" lon="2.53831">
        <ele>102</ele>
        <time>2016-04-04T05:21:57Z</time>
      </trkpt>
      <trkpt lat="48.36106" lon="2.53842">
        <ele>102</ele>
        <time>2016-04-04T05:23:57Z</time>
      </trkpt>
      <trkpt lat="48.36103" lon="2.53867">
        <ele>102</ele>
        <time>2016-04-04T05:25:57Z</time>
      </trkpt>
      <trkpt lat="48.36101" lon="2.53883">
        <ele>102</ele>
        <time>2016-04-04T05:27:57Z</time>
      </trkpt>
      <trkpt lat="48.36101" lon="2.53863">
        <ele>102</ele>
        <time>2016-04-04T05:29:57Z</time>
      </trkpt>
      <trkpt lat="48.36103" lon="2.53848">
        <ele>101</ele>
        <time>2016-04-04T05:31:57Z</time>
      </trkpt>
      <trkpt lat="48.36098" lon="2.53852">
        <ele>101</ele>
        <time>2016-04-04T05:33:57Z</time>
      </trkpt>
      <trkpt lat="48.36091" lon="2.53857">
        <ele>100</ele>
        <time>2016-04-04T05:35:57Z</time>
      </trkpt>
      <trkpt lat="48.36085" lon="2.53856">
        <ele>99</ele>
        <time>2016-04-04T05:37:57Z</time>
      </trkpt>
      <trkpt lat="48.36082" lon="2.53845">
        <ele>98</ele>
        <time>2016-04-04T05:39:57Z</time>
      </trkpt>
      <trkpt lat="48.36078" lon="2.5383">
        <ele>97</ele>
        <time>2016-04-04T05:41:57Z</time>
      </trkpt>
      <trkpt lat="48.36074" lon="2.53822">
        <ele>95</ele>
        <time>2016-04-04T05:43:57Z</time>
      </trkpt>
      <trkpt lat="48.36065" lon="2.53818">
        <ele>93</ele>
        <time>2016-04-04T05:45:57Z</time>
      </trkpt>
      <trkpt lat="48.36058" lon="2.53818">
        <ele>92</ele>
        <time>2016-04-04T05:47:57Z</time>
      </trkpt>
      <trkpt lat="48.36052" lon="2.53809">
        <ele>90</ele>
        <time>2016-04-04T05:49:57Z</time>
      </trkpt>
      <trkpt lat="48.36047" lon="2.53797">
        <ele>88</ele>
        <time>2016-04-04T05:51:57Z</time>
      </trkpt>
      <trkpt lat="48.36039" lon="2.53789">
        <ele>86</ele>
        <time>2016-04-04T05:53:57Z</time>
      </trkpt>
      <trkpt lat="48.36035" lon="2.53776">
        <ele>85</ele>
        <time>2016-04-04T05:55:57Z</time>
      </trkpt>
      <trkpt lat="48.36031" lon="2.53764">
        <ele>84</ele>
        <time>2016-04-04T05:57:57Z</time>
      </trkpt>
      <trkpt lat="48.36022" lon="2.53758">
        <ele>82</ele>
        <time>2016-04-04T05:59:57Z</time>
      </trkpt>
      <trkpt lat="48.36011" lon="2.53751">
        <ele>80</ele>
        <time>2016-04-04T06:01:57Z</time>
      </trkpt>
      <trkpt lat="48.3601" lon="2.53737">
        <ele>80</ele>
        <time>2016-04-04T06:03:57Z</time>
      </trkpt>
      <trkpt lat="48.36001" lon="2.53747">
        <ele>78</ele>
        <time>2016-04-04T06:05:57Z</time>
      </trkpt>
      <trkpt lat="48.35991" lon="2.53751">
        <ele>78</ele>
        <time>2016-04-04T06:07:57Z</time>
      </trkpt>
      <trkpt lat="48.35988" lon="2.53757">
        <ele>78</ele>
        <time>2016-04-04T06:09:57Z</time>
      </trkpt>
      <trkpt lat="48.35984" lon="2.5375">
        <ele>77</ele>
        <time>2016-04-04T06:11:57Z</time>
      </trkpt>
      <trkpt lat="48.35982" lon="2.5373">
        <ele>77</ele>
        <time>2016-04-04T06:13:57Z</time>
      </trkpt>
      <trkpt lat="48.35983" lon="2.53712">
        <ele>77</ele>
        <time>2016-04-04T06:15:57Z</time>
      </trkpt>
      <trkpt lat="48.35986" lon="2.53695">
        <ele>77</ele>
        <time>2016-04-04T06:17:57Z</time>
      </trkpt>
      <trkpt lat="48.35992" lon="2.53684">
        <ele>77</ele>
        <time>2016-04-04T06:19:57Z</time>
      </trkpt>
      <trkpt lat="48.35986" lon="2.53679">
        <ele>77</ele>
        <time>2016-04-04T06:21:57Z</time>
      </trkpt>
      <trkpt lat="48.35987" lon="2.53662">
        <ele>77</ele>
        <time>2016-04-04T06:23:57Z</time>
      </trkpt>
      <trkpt lat="48.35989" lon="2.53649">
        <ele>77</ele>
        <time>2016-04-04T06:25:57Z</time>
      </trkpt>
      <trkpt lat="48.35991" lon="2.53637">
        <ele>77</ele>
        <time>2016-04-04T06:27:57Z</time>
      </trkpt>
      <trkpt lat="48.35993" lon="2.53619">
        <ele>77</ele>
        <time>2016-04-04T06:29:57Z</time>
      </trkpt>
      <trkpt lat="48.35993" lon="2.53609">
        <ele>77</ele>
        <time>2016-04-04T06:31:57Z</time>
      </trkpt>
      <trkpt lat="48.35991" lon="2.53595">
        <ele>77</ele>
        <time>2016-04-04T06:33:57Z</time>
      </trkpt>
      <trkpt lat="48.35993" lon="2.53584">
        <ele>77</ele>
        <time>2016-04-04T06:35:57Z</time>
      </trkpt>
      <trkpt lat="48.35995" lon="2.53573">
        <ele>77</ele>
        <time>2016-04-04T06:37:57Z</time>
      </trkpt>
      <trkpt lat="48.35996" lon="2.5356">
        <ele>77</ele>
        <time>2016-04-04T06:39:57Z</time>
      </trkpt>
      <trkpt lat="48.35998" lon="2.53544">
        <ele>77</ele>
        <time>2016-04-04T06:41:57Z</time>
      </trkpt>
      <trkpt lat="48.35999" lon="2.53524">
        <ele>77</ele>
        <time>2016-04-04T06:43:57Z</time>
      </trkpt>
      <trkpt lat="48.35996" lon="2.53515">
        <ele>77</ele>
        <time>2016-04-04T06:45:57Z</time>
      </trkpt>
      <trkpt lat="48.3599" lon="2.53502">
        <ele>77</ele>
        <time>2016-04-04T06:47:57Z</time>
      </trkpt>
      <trkpt lat="48.35984" lon="2.53482">
        <ele>77</ele>
        <time>2016-04-04T06:49:57Z</time>
      </trkpt>
      <trkpt lat="48.3598" lon="2.5347">
        <ele>76</ele>
        <time>2016-04-04T06:51:57Z</time>
      </trkpt>
      <trkpt lat="48.3597" lon="2.53467">
        <ele>76</ele>
        <time>2016-04-04T06:53:57Z</time>
      </trkpt>
      <trkpt lat="48.3596" lon="2.53465">
        <ele>76</ele>
        <time>2016-04-04T06:55:57Z</time>
      </trkpt>
      <trkpt lat="48.35951" lon="2.53463">
        <ele>75</ele>
        <time>2016-04-04T06:57:57Z</time>
      </trkpt>
      <trkpt lat="48.35943" lon="2.53462">
        <ele>75</ele>
        <time>2016-04-04T06:59:57Z</time>
      </trkpt>
      <trkpt lat="48.35938" lon="2.53454">
        <ele>75</ele>
        <time>2016-04-04T07:01:57Z</time>
      </trkpt>
      <trkpt lat="48.35915" lon="2.53454">
        <ele>74</ele>
        <time>2016-04-04T07:03:57Z</time>
      </trkpt>
      <trkpt lat="48.35906" lon="2.53454">
        <ele>74</ele>
        <time>2016-04-04T07:05:57Z</time>
      </trkpt>
      <trkpt lat="48.35897" lon="2.53458">
        <ele>75</ele>
        <time>2016-04-04T07:07:57Z</time>
      </trkpt>
      <trkpt lat="48.35902" lon="2.53278">
        <ele>73</ele>
        <time>2016-04-04T07:09:57Z</time>
      </trkpt>
      <trkpt lat="48.35883" lon="2.53304">
        <ele>74</ele>
        <time>2016-04-04T07:11:57Z</time>
      </trkpt>
      <trkpt lat="48.35871" lon="2.53307">
        <ele>75</ele>
        <time>2016-04-04T07:13:57Z</time>
      </trkpt>
      <trkpt lat="48.35861" lon="2.53293">
        <ele>76</ele>
        <time>2016-04-04T07:15:57Z</time>
      </trkpt>
      <trkpt lat="48.35858" lon="2.5327">
        <ele>76</ele>
        <time>2016-04-04T07:17:57Z</time>
      </trkpt>
      <trkpt lat="48.35853" lon="2.53246">
        <ele>76</ele>
        <time>2016-04-04T07:19:57Z</time>
      </trkpt>
      <trkpt lat="48.35846" lon="2.53232">
        <ele>76</ele>
        <time>2016-04-04T07:21:57Z</time>
      </trkpt>
      <trkpt lat="48.35837" lon="2.53233">
        <ele>77</ele>
        <time>2016-04-04T07:23:57Z</time>
      </trkpt>
      <trkpt lat="48.35834" lon="2.53199">
        <ele>77</ele>
        <time>2016-04-04T07:25:57Z</time>
      </trkpt>
      <trkpt lat="48.35833" lon="2.53138">
        <ele>78</ele>
        <time>2016-04-04T07:27:57Z</time>
      </trkpt>
      <trkpt lat="48.35815" lon="2.53001">
        <ele>81</ele>
        <time>2016-04-04T07:29:57Z</time>
      </trkpt>
      <trkpt lat="48.35801" lon="2.52942">
        <ele>81</ele>
        <time>2016-04-04T07:31:57Z</time>
      </trkpt>
      <trkpt lat="48.35796" lon="2.52902">
        <ele>80</ele>
        <time>2016-04-04T07:33:57Z</time>
      </trkpt>
      <trkpt lat="48.35789" lon="2.52778">
        <ele>79</ele>
        <time>2016-04-04T07:35:57Z</time>
      </trkpt>
      <trkpt lat="48.3578" lon="2.52683">
        <ele>78</ele>
        <time>2016-04-04T07:37:57Z</time>
      </trkpt>
      <trkpt lat="48.3578" lon="2.52656">
        <ele>77</ele>
        <time>2016-04-04T07:39:57Z</time>
      </trkpt>
      <trkpt lat="48.35774" lon="2.52634">
        <ele>77</ele>
        <time>2016-04-04T07:41:57Z</time>
      </trkpt>
      <trkpt lat="48.35771" lon="2.52614">
        <ele>76</ele>
        <time>2016-04-04T07:43:57Z</time>
      </trkpt>
      <trkpt lat="48.35772" lon="2.52591">
        <ele>75</ele>
        <time>2016-04-04T07:45:57Z</time>
      </trkpt>
      <trkpt lat="48.35772" lon="2.52562">
        <ele>76</ele>
        <time>2016-04-04T07:47:57Z</time>
      </trkpt>
      <trkpt lat="48.35774" lon="2.52545">
        <ele>76</ele>
        <time>2016-04-04T07:49:57Z</time>
      </trkpt>
      <trkpt lat="48.35772" lon="2.52525">
        <ele>76</ele>
        <time>2016-04-04T07:51:57Z</time>
      </trkpt>
      <trkpt lat="48.35769" lon="2.52497">
        <ele>77</ele>
        <time>2016-04-04T07:53:57Z</time>
      </trkpt>
      <trkpt lat="48.35769" lon="2.52481">
        <ele>77</ele>
        <time>2016-04-04T07:55:57Z</time>
      </trkpt>
      <trkpt lat="48.35778" lon="2.52471">
        <ele>77</ele>
        <time>2016-04-04T07:57:57Z</time>
      </trkpt>
      <trkpt lat="48.35748" lon="2.52425">
        <ele>78</ele>
        <time>2016-04-04T07:59:57Z</time>
      </trkpt>
      <trkpt lat="48.35725" lon="2.52371">
        <ele>78</ele>
        <time>2016-04-04T08:01:57Z</time>
      </trkpt>
      <trkpt lat="48.35703" lon="2.52331">
        <ele>77</ele>
        <time>2016-04-04T08:03:57Z</time>
      </trkpt>
      <trkpt lat="48.35667" lon="2.52265">
        <ele>78</ele>
        <time>2016-04-04T08:05:57Z</time>
      </trkpt>
      <trkpt lat="48.35636" lon="2.52212">
        <ele>79</ele>
        <time>2016-04-04T08:07:57Z</time>
      </trkpt>
      <trkpt lat="48.35602" lon="2.52153">
        <ele>79</ele>
        <time>2016-04-04T08:09:57Z</time>
      </trkpt>
      <trkpt lat="48.35585" lon="2.52127">
        <ele>79</ele>
        <time>2016-04-04T08:11:57Z</time>
      </trkpt>
      <trkpt lat="48.35562" lon="2.52096">
        <ele>77</ele>
        <time>2016-04-04T08:13:57Z</time>
      </trkpt>
      <trkpt lat="48.3554" lon="2.5207">
        <ele>76</ele>
        <time>2016-04-04T08:15:57Z</time>
      </trkpt>
      <trkpt lat="48.35532" lon="2.52059">
        <ele>75</ele>
        <time>2016-04-04T08:17:57Z</time>
      </trkpt>
      <trkpt lat="48.3553" lon="2.52029">
        <ele>74</ele>
        <time>2016-04-04T08:19:57Z</time>
      </trkpt>
      <trkpt lat="48.3553" lon="2.51935">
        <ele>72</ele>
        <time>2016-04-04T08:21:57Z</time>
      </trkpt>
      <trkpt lat="48.35521" lon="2.51925">
        <ele>72</ele>
        <time>2016-04-04T08:23:57Z</time>
      </trkpt>
    </trkseg>
  </trk>
</gpx>